Time,TemperatureF,DewpointF,PressureIn,WindDirection,WindDirectionDegrees,WindSpeedMPH,WindSpeedGustMPH,Humidity,HourlyPrecipIn,Conditions,Clouds,dailyrainin,SoftwareType,DateUTC
2014-01-18 00:12:00,34.0,18.0,29.89,NW,320,0.0,-999.0,51,-99.99,,,-99.99,,2014-01-18 05:12:00,
2014-01-18 00:22:00,33.0,18.0,29.89,WNW,288,0.0,-999.0,53,-99.99,,,-99.99,,2014-01-18 05:22:00,
2014-01-18 00:43:00,32.0,19.0,29.89,WNW,288,0.0,-999.0,57,-99.99,,,-99.99,,2014-01-18 05:43:00,
2014-01-18 00:52:00,31.0,18.0,29.89,SW,236,0.0,-999.0,59,-99.99,,,-99.99,,2014-01-18 05:52:00,
2014-01-18 01:13:00,30.0,19.0,29.88,SW,236,0.0,-999.0,64,-99.99,,,-99.99,,2014-01-18 06:13:00,
2014-01-18 01:22:00,30.0,19.0,29.88,WSW,246,0.0,-999.0,64,-99.99,,,-99.99,,2014-01-18 06:22:00,
2014-01-18 01:42:00,31.0,20.0,29.88,WSW,250,0.0,-999.0,63,-99.99,,,-99.99,,2014-01-18 06:42:00,
2014-01-18 01:52:00,31.0,20.0,29.88,West,263,0.0,-999.0,64,-99.99,,,-99.99,,2014-01-18 06:52:00,
2014-01-18 02:12:00,32.0,19.0,29.89,NW,309,1.0,-999.0,57,-99.99,,,-99.99,,2014-01-18 07:12:00,
2014-01-18 02:22:00,32.0,15.0,29.89,NE,38,2.0,-999.0,50,-99.99,,,-99.99,,2014-01-18 07:22:00,
2014-01-18 02:42:00,31.0,14.0,29.89,NE,56,2.0,-999.0,48,-99.99,,,-99.99,,2014-01-18 07:42:00,
2014-01-18 02:52:00,31.0,13.0,29.90,West,263,2.0,-999.0,46,-99.99,,,-99.99,,2014-01-18 07:52:00,
2014-01-18 03:12:00,30.0,11.0,29.90,NW,323,2.0,-999.0,44,-99.99,,,-99.99,,2014-01-18 08:12:00,
2014-01-18 03:22:00,29.0,10.0,29.91,WNW,284,1.0,-999.0,44,-99.99,,,-99.99,,2014-01-18 08:22:00,
2014-01-18 03:42:00,29.0,10.0,29.91,NW,309,0.0,-999.0,45,-99.99,,,-99.99,,2014-01-18 08:42:00,
2014-01-18 03:52:00,29.0,11.0,29.92,SW,236,0.0,-999.0,46,-99.99,,,-99.99,,2014-01-18 08:52:00,
2014-01-18 04:12:00,28.0,11.0,29.92,NW,315,0.0,-999.0,48,-99.99,,,-99.99,,2014-01-18 09:12:00,
2014-01-18 04:22:00,28.0,11.0,29.93,WSW,241,0.0,-999.0,49,-99.99,,,-99.99,,2014-01-18 09:22:00,
2014-01-18 04:43:00,28.0,11.0,29.92,WNW,284,0.0,-999.0,48,-99.99,,,-99.99,,2014-01-18 09:43:00,
2014-01-18 04:53:00,27.0,10.0,29.93,West,278,0.0,-999.0,49,-99.99,,,-99.99,,2014-01-18 09:53:00,
2014-01-18 05:23:00,27.0,10.0,29.94,WSW,248,0.0,-999.0,49,-99.99,,,-99.99,,2014-01-18 10:23:00,
2014-01-18 05:42:00,27.0,11.0,29.94,WNW,296,0.0,-999.0,50,-99.99,,,-99.99,,2014-01-18 10:42:00,
2014-01-18 05:53:00,27.0,11.0,29.93,West,279,0.0,-999.0,50,-99.99,,,-99.99,,2014-01-18 10:53:00,
2014-01-18 06:11:00,26.0,11.0,29.94,SW,227,0.0,-999.0,53,-99.99,,,-99.99,,2014-01-18 11:11:00,
2014-01-18 06:22:00,26.0,11.0,29.95,WNW,283,0.0,-999.0,53,-99.99,,,-99.99,,2014-01-18 11:22:00,
2014-01-18 06:42:00,26.0,11.0,29.95,WNW,288,0.0,-999.0,53,-99.99,,,-99.99,,2014-01-18 11:42:00,
2014-01-18 06:52:00,26.0,12.0,29.95,WNW,286,0.0,-999.0,54,-99.99,,,-99.99,,2014-01-18 11:52:00,
2014-01-18 07:11:00,25.0,11.0,29.95,South,173,0.0,-999.0,54,-99.99,,,-99.99,,2014-01-18 12:11:00,
2014-01-18 07:22:00,25.0,11.0,29.96,West,261,0.0,-999.0,55,-99.99,,,-99.99,,2014-01-18 12:22:00,
2014-01-18 07:42:00,24.0,11.0,29.96,West,261,0.0,-999.0,57,-99.99,,,-99.99,,2014-01-18 12:42:00,
2014-01-18 07:52:00,23.0,13.0,29.97,West,261,0.0,-999.0,65,-99.99,,,-99.99,,2014-01-18 12:52:00,
2014-01-18 08:11:00,23.0,14.0,29.98,West,261,0.0,-999.0,68,-99.99,,,-99.99,,2014-01-18 13:11:00,
2014-01-18 08:22:00,22.0,13.0,29.98,West,261,0.0,-999.0,69,-99.99,,,-99.99,,2014-01-18 13:22:00,
2014-01-18 08:42:00,22.0,13.0,29.99,West,261,0.0,-999.0,67,-99.99,,,-99.99,,2014-01-18 13:42:00,
2014-01-18 08:52:00,22.0,13.0,30.00,West,261,0.0,-999.0,67,-99.99,,,-99.99,,2014-01-18 13:52:00,
2014-01-18 09:11:00,24.0,14.0,30.00,West,261,0.0,-999.0,65,-99.99,,,-99.99,,2014-01-18 14:11:00,
2014-01-18 09:22:00,26.0,15.0,30.01,West,261,0.0,-999.0,62,-99.99,,,-99.99,,2014-01-18 14:22:00,
2014-01-18 09:42:00,27.0,15.0,30.02,WSW,240,0.0,-999.0,59,-99.99,,,-99.99,,2014-01-18 14:42:00,
2014-01-18 09:52:00,28.0,15.0,30.03,SW,229,0.0,-999.0,57,-99.99,,,-99.99,,2014-01-18 14:52:00,
2014-01-18 10:12:00,29.0,15.0,30.03,WNW,296,0.0,-999.0,55,-99.99,,,-99.99,,2014-01-18 15:12:00,
2014-01-18 10:22:00,30.0,15.0,30.04,West,271,0.0,-999.0,54,-99.99,,,-99.99,,2014-01-18 15:22:00,
2014-01-18 10:43:00,31.0,15.0,30.05,NE,40,0.0,-999.0,51,-99.99,,,-99.99,,2014-01-18 15:43:00,
2014-01-18 10:53:00,31.0,15.0,30.06,WSW,252,0.0,-999.0,50,-99.99,,,-99.99,,2014-01-18 15:53:00,
2014-01-18 11:13:00,32.0,15.0,30.06,SSE,155,1.0,-999.0,49,-99.99,,,-99.99,,2014-01-18 16:13:00,
2014-01-18 11:23:00,33.0,15.0,30.05,West,264,1.0,-999.0,48,-99.99,,,-99.99,,2014-01-18 16:23:00,
2014-01-18 11:43:00,33.0,15.0,30.05,SW,221,1.0,-999.0,48,-99.99,,,-99.99,,2014-01-18 16:43:00,
2014-01-18 11:52:00,34.0,15.0,30.05,WSW,257,1.0,-999.0,46,-99.99,,,-99.99,,2014-01-18 16:52:00,
2014-01-18 12:12:00,35.0,16.0,30.04,SSW,206,1.0,-999.0,45,-99.99,,,-99.99,,2014-01-18 17:12:00,
2014-01-18 12:22:00,35.0,16.0,30.03,WSW,239,1.0,-999.0,45,-99.99,,,-99.99,,2014-01-18 17:22:00,
2014-01-18 12:42:00,36.0,16.0,30.02,SSW,209,0.0,-999.0,44,-99.99,,,-99.99,,2014-01-18 17:42:00,
2014-01-18 12:52:00,36.0,16.0,30.01,NW,322,1.0,-999.0,44,-99.99,,,-99.99,,2014-01-18 17:52:00,
2014-01-18 13:12:00,37.0,17.0,30.01,SW,233,1.0,-999.0,44,-99.99,,,-99.99,,2014-01-18 18:12:00,
2014-01-18 13:22:00,38.0,18.0,30.00,SW,217,1.0,-999.0,43,-99.99,,,-99.99,,2014-01-18 18:22:00,
2014-01-18 13:43:00,38.0,18.0,29.99,NW,304,0.0,-999.0,43,-99.99,,,-99.99,,2014-01-18 18:43:00,
2014-01-18 13:52:00,39.0,17.0,29.98,WSW,239,1.0,-999.0,41,-99.99,,,-99.99,,2014-01-18 18:52:00,
2014-01-18 14:11:00,39.0,17.0,29.98,NW,325,0.0,-999.0,40,-99.99,,,-99.99,,2014-01-18 19:11:00,
2014-01-18 14:22:00,39.0,16.0,29.97,NW,313,1.0,-999.0,38,-99.99,,,-99.99,,2014-01-18 19:22:00,
2014-01-18 14:42:00,39.0,16.0,29.96,West,261,1.0,-999.0,39,-99.99,,,-99.99,,2014-01-18 19:42:00,
2014-01-18 14:52:00,40.0,18.0,29.96,NW,313,1.0,-999.0,41,-99.99,,,-99.99,,2014-01-18 19:52:00,
2014-01-18 15:12:00,40.0,17.0,29.96,SW,227,1.0,-999.0,39,-99.99,,,-99.99,,2014-01-18 20:12:00,
2014-01-18 15:22:00,41.0,17.0,29.95,WSW,247,0.0,-999.0,38,-99.99,,,-99.99,,2014-01-18 20:22:00,
2014-01-18 15:42:00,40.0,16.0,29.95,SSW,192,1.0,-999.0,37,-99.99,,,-99.99,,2014-01-18 20:42:00,
2014-01-18 15:52:00,40.0,16.0,29.96,West,280,0.0,-999.0,37,-99.99,,,-99.99,,2014-01-18 20:52:00,
2014-01-18 16:12:00,40.0,15.0,29.96,ESE,113,1.0,-999.0,36,-99.99,,,-99.99,,2014-01-18 21:12:00,
2014-01-18 16:22:00,40.0,15.0,29.95,SW,220,0.0,-999.0,36,-99.99,,,-99.99,,2014-01-18 21:22:00,
2014-01-18 16:43:00,40.0,16.0,29.96,SSW,197,0.0,-999.0,38,-99.99,,,-99.99,,2014-01-18 21:43:00,
2014-01-18 16:53:00,40.0,16.0,29.96,WSW,240,0.0,-999.0,37,-99.99,,,-99.99,,2014-01-18 21:53:00,
2014-01-18 17:13:00,39.0,16.0,29.96,SSW,194,0.0,-999.0,39,-99.99,,,-99.99,,2014-01-18 22:13:00,
2014-01-18 17:23:00,38.0,16.0,29.96,WSW,242,1.0,-999.0,40,-99.99,,,-99.99,,2014-01-18 22:23:00,
2014-01-18 17:43:00,38.0,16.0,29.96,SSW,213,1.0,-999.0,40,-99.99,,,-99.99,,2014-01-18 22:43:00,
2014-01-18 17:53:00,37.0,16.0,29.96,SSW,213,0.0,-999.0,41,-99.99,,,-99.99,,2014-01-18 22:53:00,
2014-01-18 18:11:00,37.0,16.0,29.96,NW,310,0.0,-999.0,42,-99.99,,,-99.99,,2014-01-18 23:11:00,
2014-01-18 18:22:00,36.0,15.0,29.96,West,279,0.0,-999.0,42,-99.99,,,-99.99,,2014-01-18 23:22:00,
2014-01-18 18:42:00,36.0,16.0,29.96,West,275,0.0,-999.0,43,-99.99,,,-99.99,,2014-01-18 23:42:00,
2014-01-18 18:53:00,35.0,15.0,29.96,SE,130,0.0,-999.0,44,-99.99,,,-99.99,,2014-01-18 23:53:00,
2014-01-18 19:11:00,34.0,15.0,29.96,South,171,0.0,-999.0,46,-99.99,,,-99.99,,2014-01-19 00:11:00,
2014-01-18 19:22:00,33.0,15.0,29.96,SW,230,0.0,-999.0,46,-99.99,,,-99.99,,2014-01-19 00:22:00,
2014-01-18 19:42:00,33.0,15.0,29.95,WSW,246,0.0,-999.0,46,-99.99,,,-99.99,,2014-01-19 00:42:00,
2014-01-18 19:52:00,33.0,15.0,29.95,WSW,245,0.0,-999.0,46,-99.99,,,-99.99,,2014-01-19 00:52:00,
2014-01-18 20:11:00,33.0,15.0,29.95,SW,229,0.0,-999.0,46,-99.99,,,-99.99,,2014-01-19 01:11:00,
2014-01-18 20:22:00,33.0,15.0,29.95,SW,222,0.0,-999.0,46,-99.99,,,-99.99,,2014-01-19 01:22:00,
2014-01-18 20:42:00,33.0,15.0,29.95,SW,222,0.0,-999.0,47,-99.99,,,-99.99,,2014-01-19 01:42:00,
2014-01-18 20:52:00,33.0,15.0,29.95,SW,222,0.0,-999.0,47,-99.99,,,-99.99,,2014-01-19 01:52:00,
2014-01-18 21:12:00,33.0,15.0,29.95,WNW,296,0.0,-999.0,48,-99.99,,,-99.99,,2014-01-19 02:12:00,
2014-01-18 21:22:00,32.0,14.0,29.94,WNW,296,0.0,-999.0,47,-99.99,,,-99.99,,2014-01-19 02:22:00,
2014-01-18 21:42:00,32.0,15.0,29.94,SSW,211,0.0,-999.0,49,-99.99,,,-99.99,,2014-01-19 02:42:00,
2014-01-18 21:52:00,32.0,15.0,29.96,SSW,211,0.0,-999.0,49,-99.99,,,-99.99,,2014-01-19 02:52:00,
2014-01-18 22:11:00,32.0,15.0,29.97,SW,229,0.0,-999.0,48,-99.99,,,-99.99,,2014-01-19 03:11:00,
2014-01-18 22:22:00,32.0,15.0,29.97,West,279,0.0,-999.0,49,-99.99,,,-99.99,,2014-01-19 03:22:00,
2014-01-18 22:43:00,31.0,15.0,29.96,West,279,0.0,-999.0,50,-99.99,,,-99.99,,2014-01-19 03:43:00,
2014-01-18 22:53:00,31.0,15.0,29.96,West,279,0.0,-999.0,52,-99.99,,,-99.99,,2014-01-19 03:53:00,
2014-01-18 23:03:00,-999.0,-99.9,29.96,SW,234,0.0,-999.0,-999,-99.99,,,-99.99,,2014-01-19 04:03:00,
2014-01-18 23:23:00,31.0,15.0,29.96,SW,234,0.0,-999.0,52,-99.99,,,-99.99,,2014-01-19 04:23:00,
2014-01-18 23:43:00,30.0,16.0,29.95,SW,234,0.0,-999.0,55,-99.99,,,-99.99,,2014-01-19 04:43:00,
2014-01-18 23:52:00,30.0,17.0,29.95,SW,234,0.0,-999.0,59,-99.99,,,-99.99,,2014-01-19 04:52:00,